createdAt,value
2022-11-01T00:00:01.955Z,69.00
2022-11-01T00:01:02.311Z,69.00
2022-11-01T00:02:02.515Z,70.00
2022-11-01T00:03:02.568Z,70.00
2022-11-01T00:04:02.350Z,69.00
2022-11-01T00:05:02.215Z,69.00
2022-11-01T00:06:02.478Z,69.00
2022-11-01T00:07:02.699Z,69.00
2022-11-01T00:08:03.097Z,69.00
2022-11-01T00:09:02.709Z,69.00
2022-11-01T00:10:02.592Z,69.00
2022-11-01T00:11:02.712Z,69.00
2022-11-01T00:12:02.913Z,69.00
2022-11-01T00:13:03.248Z,68.00
2022-11-01T00:14:03.236Z,69.00
2022-11-01T00:15:03.143Z,69.00
2022-11-01T00:16:03.069Z,68.00
2022-11-01T00:17:01.956Z,68.00
2022-11-01T00:18:02.211Z,68.00
2022-11-01T00:19:02.062Z,68.00
2022-11-01T00:20:02.094Z,69.00
2022-11-01T00:21:02.045Z,68.00
2022-11-01T00:22:02.868Z,68.00
2022-11-01T00:23:02.933Z,68.00
2022-11-01T00:24:02.574Z,68.00
2022-11-01T00:25:03.049Z,68.00
2022-11-01T00:26:03.209Z,68.00
2022-11-01T00:27:02.405Z,68.00
2022-11-01T00:28:02.176Z,68.00
2022-11-01T00:29:02.058Z,68.00
2022-11-01T00:30:02.302Z,68.00
2022-11-01T00:31:02.462Z,68.00
2022-11-01T00:32:02.555Z,68.00
2022-11-01T00:33:03.007Z,68.00
2022-11-01T00:34:02.027Z,68.00
2022-11-01T00:35:02.133Z,68.00
2022-11-01T00:36:02.100Z,68.00
2022-11-01T00:37:03.089Z,68.00
2022-11-01T00:38:03.624Z,68.00
2022-11-01T00:39:02.579Z,68.00
2022-11-01T00:40:02.923Z,68.00
2022-11-01T00:41:02.700Z,68.00
2022-11-01T00:42:02.729Z,68.00
2022-11-01T00:43:02.524Z,68.00
2022-11-01T00:44:02.307Z,68.00
2022-11-01T00:45:02.626Z,68.00
2022-11-01T00:46:02.220Z,68.00
2022-11-01T00:47:02.823Z,68.00
2022-11-01T00:48:03.338Z,68.00
2022-11-01T00:49:02.960Z,68.00
2022-11-01T00:50:02.883Z,68.00
2022-11-01T00:51:02.828Z,68.00
2022-11-01T00:52:02.711Z,68.00
2022-11-01T00:53:02.465Z,68.00
2022-11-01T00:54:02.661Z,68.00
2022-11-01T00:55:02.521Z,67.00
2022-11-01T00:56:02.453Z,67.00
2022-11-01T00:57:03.056Z,67.00
2022-11-01T00:58:03.135Z,67.00
2022-11-01T00:59:03.254Z,67.00
2022-11-01T01:00:02.692Z,67.00
2022-11-01T01:01:02.844Z,67.00
2022-11-01T01:02:02.355Z,67.00
2022-11-01T01:03:02.546Z,67.00
2022-11-01T01:04:02.709Z,67.00
2022-11-01T01:05:02.743Z,67.00
2022-11-01T01:06:02.715Z,67.00
2022-11-01T01:07:02.685Z,68.00
2022-11-01T01:08:02.829Z,67.00
2022-11-01T01:09:02.485Z,67.00
2022-11-01T01:10:02.923Z,67.00
2022-11-01T01:11:02.401Z,67.00
2022-11-01T01:12:02.176Z,66.00
2022-11-01T01:13:01.993Z,67.00
2022-11-01T01:14:01.913Z,67.00
2022-11-01T01:15:01.731Z,67.00
2022-11-01T01:16:01.948Z,67.00
2022-11-01T01:17:02.573Z,67.00
2022-11-01T01:18:02.721Z,67.00
2022-11-01T01:19:02.332Z,67.00
2022-11-01T01:20:02.221Z,66.00
2022-11-01T01:21:02.185Z,67.00
2022-11-01T01:22:02.531Z,66.00
2022-11-01T01:23:02.880Z,66.00
2022-11-01T01:24:02.954Z,66.00
2022-11-01T01:25:02.488Z,66.00
2022-11-01T01:26:02.750Z,66.00
2022-11-01T01:27:01.969Z,65.00
2022-11-01T01:28:02.771Z,65.00
2022-11-01T01:29:02.084Z,65.00
2022-11-01T01:30:02.437Z,65.00
2022-11-01T01:31:02.415Z,65.00
2022-11-01T01:32:02.470Z,65.00
2022-11-01T01:33:02.651Z,65.00
2022-11-01T01:34:02.744Z,65.00
2022-11-01T01:35:02.874Z,65.00
2022-11-01T01:36:02.511Z,65.00
2022-11-01T01:37:02.020Z,66.00
2022-11-01T01:38:02.109Z,66.00
2022-11-01T01:39:02.055Z,66.00
2022-11-01T01:40:02.149Z,66.00
2022-11-01T01:41:02.180Z,66.00
2022-11-01T01:42:02.330Z,66.00
2022-11-01T01:43:02.993Z,66.00
2022-11-01T01:44:02.581Z,67.00
2022-11-01T01:45:02.507Z,67.00
2022-11-01T01:46:02.541Z,67.00
2022-11-01T01:47:02.195Z,67.00
2022-11-01T01:48:02.496Z,67.00
2022-11-01T01:49:01.912Z,67.00
2022-11-01T01:50:02.286Z,67.00
2022-11-01T01:51:02.064Z,67.00
2022-11-01T01:52:02.358Z,67.00
2022-11-01T01:53:02.932Z,68.00
2022-11-01T01:54:02.798Z,68.00
2022-11-01T01:55:02.168Z,68.00
2022-11-01T01:56:02.495Z,68.00
2022-11-01T01:57:02.844Z,68.00
2022-11-01T01:58:03.143Z,68.00
2022-11-01T01:59:03.279Z,68.00
2022-11-01T02:00:02.636Z,68.00
2022-11-01T02:01:03.026Z,68.00
2022-11-01T02:02:03.663Z,68.00
2022-11-01T02:03:04.035Z,68.00
2022-11-01T02:04:03.478Z,68.00
2022-11-01T02:05:03.580Z,68.00
2022-11-01T02:06:03.264Z,68.00
2022-11-01T02:07:03.396Z,68.00
2022-11-01T02:08:04.239Z,68.00
2022-11-01T02:09:03.887Z,68.00
2022-11-01T02:10:03.377Z,68.00
2022-11-01T02:11:03.962Z,68.00
2022-11-01T02:12:03.444Z,67.00
2022-11-01T02:13:03.811Z,67.00
2022-11-01T02:14:03.486Z,67.00
2022-11-01T02:15:03.546Z,67.00
2022-11-01T02:16:03.781Z,67.00
2022-11-01T02:17:07.073Z,67.00
2022-11-01T02:18:03.722Z,67.00
2022-11-01T02:19:03.119Z,67.00
2022-11-01T02:20:03.335Z,67.00
2022-11-01T02:21:03.321Z,67.00
2022-11-01T02:22:03.715Z,68.00
2022-11-01T02:23:03.902Z,67.00
2022-11-01T02:24:03.493Z,67.00
2022-11-01T02:25:03.994Z,68.00
2022-11-01T02:26:03.575Z,68.00
2022-11-01T02:27:02.790Z,68.00
2022-11-01T02:28:03.105Z,68.00
2022-11-01T02:29:05.683Z,68.00
2022-11-01T02:30:02.919Z,68.00
2022-11-01T02:31:02.864Z,68.00
2022-11-01T02:32:02.855Z,68.00
2022-11-01T02:33:03.386Z,68.00
2022-11-01T02:34:03.377Z,68.00
2022-11-01T02:35:03.393Z,68.00
2022-11-01T02:36:03.392Z,68.00
2022-11-01T02:37:03.238Z,69.00
2022-11-01T02:38:03.446Z,69.00
2022-11-01T02:39:03.234Z,69.00
2022-11-01T02:40:03.538Z,69.00
2022-11-01T02:41:03.605Z,69.00
2022-11-01T02:42:03.185Z,69.00
2022-11-01T02:43:03.325Z,68.00
2022-11-01T02:44:02.894Z,68.00
2022-11-01T02:45:02.864Z,68.00
2022-11-01T02:46:03.148Z,68.00
2022-11-01T02:47:03.036Z,68.00
2022-11-01T02:48:03.622Z,68.00
2022-11-01T02:49:03.707Z,68.00
2022-11-01T02:50:03.384Z,69.00
2022-11-01T02:51:03.260Z,69.00
2022-11-01T02:52:03.708Z,69.00
2022-11-01T02:53:04.055Z,69.00
2022-11-01T02:54:04.107Z,69.00
2022-11-01T02:55:03.808Z,69.00
2022-11-01T02:56:04.090Z,69.00
2022-11-01T02:57:02.726Z,69.00
2022-11-01T02:58:03.312Z,69.00
2022-11-01T02:59:03.050Z,69.00
2022-11-01T03:00:03.296Z,69.00
2022-11-01T03:01:02.845Z,69.00
2022-11-01T03:02:02.996Z,69.00
2022-11-01T03:03:02.433Z,69.00
2022-11-01T03:04:02.893Z,69.00
2022-11-01T03:05:02.845Z,69.00
2022-11-01T03:06:02.501Z,69.00
2022-11-01T03:07:02.877Z,69.00
2022-11-01T03:08:03.061Z,69.00
2022-11-01T03:09:03.091Z,69.00
2022-11-01T03:10:02.888Z,70.00
2022-11-01T03:11:02.672Z,69.00
2022-11-01T03:12:02.868Z,69.00
2022-11-01T03:13:03.093Z,69.00
2022-11-01T03:14:02.706Z,69.00
2022-11-01T03:15:03.198Z,69.00
2022-11-01T03:16:02.713Z,70.00
2022-11-01T03:17:02.443Z,70.00
2022-11-01T03:18:02.845Z,70.00
2022-11-01T03:19:02.759Z,70.00
2022-11-01T03:20:02.744Z,70.00
2022-11-01T03:21:02.822Z,70.00
2022-11-01T03:22:02.413Z,70.00
2022-11-01T03:23:02.663Z,70.00
2022-11-01T03:24:02.564Z,70.00
2022-11-01T03:25:02.852Z,70.00
2022-11-01T03:26:02.694Z,70.00
2022-11-01T03:27:02.401Z,70.00
2022-11-01T03:28:02.745Z,70.00
2022-11-01T03:29:02.628Z,70.00
2022-11-01T03:30:02.527Z,70.00
2022-11-01T03:31:02.411Z,70.00
2022-11-01T03:32:02.960Z,70.00
2022-11-01T03:33:03.253Z,70.00
2022-11-01T03:34:03.310Z,70.00
2022-11-01T03:35:02.865Z,70.00
2022-11-01T03:36:03.403Z,70.00
2022-11-01T03:37:02.859Z,70.00
2022-11-01T03:38:02.326Z,70.00
2022-11-01T03:39:02.909Z,70.00
2022-11-01T03:40:02.878Z,70.00
2022-11-01T03:41:02.505Z,70.00
2022-11-01T03:42:03.517Z,70.00
2022-11-01T03:43:03.601Z,70.00
2022-11-01T03:44:02.915Z,70.00
2022-11-01T03:45:02.943Z,70.00
2022-11-01T03:46:03.494Z,71.00
2022-11-01T03:47:02.849Z,71.00
2022-11-01T03:48:03.628Z,71.00
2022-11-01T03:49:02.682Z,71.00
2022-11-01T03:50:02.564Z,71.00
2022-11-01T03:51:02.720Z,71.00
2022-11-01T03:52:03.544Z,71.00
2022-11-01T03:53:03.310Z,71.00
2022-11-01T03:54:03.291Z,72.00
2022-11-01T03:55:03.527Z,72.00
2022-11-01T03:56:03.870Z,72.00
2022-11-01T03:57:02.990Z,72.00
2022-11-01T03:58:02.804Z,71.00
2022-11-01T03:59:02.927Z,71.00
2022-11-01T04:00:02.381Z,72.00
2022-11-01T04:01:02.719Z,71.00
2022-11-01T04:02:03.548Z,72.00
2022-11-01T04:03:03.537Z,71.00
2022-11-01T04:04:03.258Z,71.00
2022-11-01T04:05:03.152Z,71.00
2022-11-01T04:06:03.622Z,71.00
2022-11-01T04:07:02.760Z,71.00
2022-11-01T04:08:03.222Z,71.00
2022-11-01T04:09:03.303Z,71.00
2022-11-01T04:10:03.301Z,72.00
2022-11-01T04:11:03.118Z,72.00
2022-11-01T04:12:02.676Z,71.00
2022-11-01T04:13:03.000Z,72.00
2022-11-01T04:14:02.498Z,72.00
2022-11-01T04:15:02.926Z,72.00
2022-11-01T04:16:02.450Z,72.00
2022-11-01T04:17:02.842Z,72.00
2022-11-01T04:18:02.727Z,72.00
2022-11-01T04:19:02.755Z,72.00
2022-11-01T04:20:02.973Z,72.00
2022-11-01T04:21:02.672Z,72.00
2022-11-01T04:22:03.352Z,72.00
2022-11-01T04:23:03.731Z,72.00
2022-11-01T04:24:02.853Z,72.00
2022-11-01T04:25:03.498Z,72.00
2022-11-01T04:26:03.201Z,72.00
2022-11-01T04:27:02.911Z,73.00
2022-11-01T04:28:02.453Z,73.00
2022-11-01T04:29:02.625Z,73.00
2022-11-01T04:30:02.750Z,72.00
2022-11-01T04:31:02.409Z,72.00
2022-11-01T04:32:03.027Z,72.00
2022-11-01T04:33:03.298Z,73.00
2022-11-01T04:34:03.030Z,73.00
2022-11-01T04:35:03.240Z,73.00
2022-11-01T04:36:03.188Z,72.00
2022-11-01T04:37:02.823Z,73.00
2022-11-01T04:38:02.617Z,72.00
2022-11-01T04:39:02.755Z,72.00
2022-11-01T04:40:02.624Z,72.00
2022-11-01T04:41:02.488Z,72.00
2022-11-01T04:42:03.010Z,72.00
2022-11-01T04:43:02.865Z,72.00
2022-11-01T04:44:02.999Z,72.00
2022-11-01T04:45:02.906Z,72.00
2022-11-01T04:46:02.625Z,72.00
2022-11-01T04:47:03.240Z,72.00
2022-11-01T04:48:04.131Z,72.00
2022-11-01T04:49:02.918Z,71.00
2022-11-01T04:50:03.607Z,71.00
2022-11-01T04:51:03.412Z,72.00
2022-11-01T04:52:03.127Z,72.00
2022-11-01T04:53:03.418Z,72.00
2022-11-01T04:54:03.084Z,72.00
2022-11-01T04:55:02.507Z,72.00
2022-11-01T04:56:02.986Z,72.00
2022-11-01T04:57:03.660Z,72.00
2022-11-01T04:58:02.927Z,72.00
2022-11-01T04:59:03.199Z,72.00
2022-11-01T05:00:03.320Z,72.00
2022-11-01T05:01:03.507Z,72.00
2022-11-01T05:02:03.587Z,72.00
2022-11-01T05:03:03.906Z,72.00
2022-11-01T05:04:03.115Z,72.00
2022-11-01T05:05:02.936Z,72.00
2022-11-01T05:06:03.073Z,72.00
2022-11-01T05:07:02.294Z,72.00
2022-11-01T05:09:02.926Z,72.00
2022-11-01T05:10:02.646Z,72.00
2022-11-01T05:11:02.517Z,72.00
2022-11-01T05:12:02.837Z,72.00
2022-11-01T05:13:03.673Z,73.00
2022-11-01T05:14:02.830Z,72.00
2022-11-01T05:15:02.927Z,72.00
2022-11-01T05:17:02.888Z,73.00
2022-11-01T05:18:02.808Z,72.00
2022-11-01T05:19:03.132Z,72.00
2022-11-01T05:20:02.877Z,72.00
2022-11-01T05:21:02.893Z,72.00
2022-11-01T05:22:02.869Z,72.00
2022-11-01T05:23:03.479Z,73.00
2022-11-01T05:24:03.477Z,73.00
2022-11-01T05:25:03.159Z,72.00
2022-11-01T05:26:03.128Z,72.00
2022-11-01T05:27:03.696Z,72.00
2022-11-01T05:28:03.885Z,73.00
2022-11-01T05:29:09.083Z,73.00
2022-11-01T05:30:03.311Z,73.00
2022-11-01T05:31:03.332Z,73.00
2022-11-01T05:32:02.200Z,73.00
2022-11-01T05:33:02.368Z,73.00
2022-11-01T05:34:02.274Z,73.00
2022-11-01T05:35:02.821Z,73.00
2022-11-01T05:36:02.693Z,73.00
2022-11-01T05:37:02.622Z,73.00
2022-11-01T05:38:02.982Z,73.00
2022-11-01T05:39:02.877Z,73.00
2022-11-01T05:40:02.776Z,72.00
2022-11-01T05:41:02.931Z,73.00
2022-11-01T05:42:03.131Z,73.00
2022-11-01T05:43:03.166Z,73.00
2022-11-01T05:44:02.958Z,73.00
2022-11-01T05:45:03.243Z,73.00
2022-11-01T05:46:03.077Z,73.00
2022-11-01T05:47:03.384Z,73.00
2022-11-01T05:48:03.661Z,73.00
2022-11-01T05:49:03.333Z,73.00
2022-11-01T05:50:03.545Z,73.00
2022-11-01T05:51:03.059Z,73.00
2022-11-01T05:52:02.878Z,73.00
2022-11-01T05:53:03.175Z,73.00
2022-11-01T05:54:02.434Z,73.00
2022-11-01T05:55:02.351Z,73.00
2022-11-01T05:56:02.367Z,73.00
2022-11-01T05:57:02.444Z,73.00
2022-11-01T05:58:02.956Z,73.00
2022-11-01T05:59:02.612Z,73.00
2022-11-01T06:00:02.574Z,73.00
2022-11-01T06:01:02.855Z,73.00
2022-11-01T06:02:03.403Z,74.00
2022-11-01T06:03:03.296Z,74.00
2022-11-01T06:04:02.899Z,74.00
2022-11-01T06:05:03.361Z,74.00
2022-11-01T06:06:03.059Z,74.00
2022-11-01T06:07:02.196Z,74.00
2022-11-01T06:08:02.121Z,74.00
2022-11-01T06:09:02.092Z,74.00
2022-11-01T06:10:02.020Z,74.00
2022-11-01T06:11:02.507Z,75.00
2022-11-01T06:12:02.504Z,75.00
2022-11-01T06:13:02.768Z,75.00
2022-11-01T06:14:02.291Z,75.00
2022-11-01T06:15:02.353Z,75.00
2022-11-01T06:16:02.593Z,76.00
2022-11-01T06:17:02.404Z,76.00
2022-11-01T06:18:03.245Z,77.00
2022-11-01T06:19:02.776Z,76.00
2022-11-01T06:20:02.602Z,76.00
2022-11-01T06:21:02.924Z,76.00
2022-11-01T06:22:02.969Z,76.00
2022-11-01T06:23:03.163Z,77.00
2022-11-01T06:24:02.985Z,77.00
2022-11-01T06:25:02.581Z,77.00
2022-11-01T06:26:02.525Z,77.00
2022-11-01T06:27:02.928Z,77.00
2022-11-01T06:28:03.767Z,77.00
2022-11-01T06:29:03.213Z,77.00
2022-11-01T06:30:03.313Z,77.00
2022-11-01T06:31:02.876Z,77.00
2022-11-01T06:32:02.991Z,77.00
2022-11-01T06:33:03.794Z,77.00
2022-11-01T06:34:03.429Z,77.00
2022-11-01T06:35:03.199Z,77.00
2022-11-01T06:36:02.848Z,77.00
2022-11-01T06:37:02.359Z,76.00
2022-11-01T06:38:02.282Z,76.00
2022-11-01T06:39:02.367Z,76.00
2022-11-01T06:40:02.538Z,75.00
2022-11-01T06:41:02.627Z,75.00
2022-11-01T06:42:02.521Z,75.00
2022-11-01T06:43:03.407Z,74.00
2022-11-01T06:44:02.812Z,75.00
2022-11-01T06:45:03.103Z,75.00
2022-11-01T06:46:02.556Z,75.00
2022-11-01T06:47:02.311Z,75.00
2022-11-01T06:48:02.973Z,75.00
2022-11-01T06:49:02.348Z,74.00
2022-11-01T06:50:02.425Z,73.00
2022-11-01T06:51:02.444Z,73.00
2022-11-01T06:52:02.697Z,73.00
2022-11-01T06:53:02.774Z,73.00
2022-11-01T06:54:02.593Z,73.00
2022-11-01T06:55:02.416Z,73.00
2022-11-01T06:56:02.195Z,73.00
2022-11-01T06:57:02.821Z,73.00
2022-11-01T06:58:03.136Z,72.00
2022-11-01T06:59:02.510Z,72.00
2022-11-01T07:00:02.720Z,71.00
2022-11-01T07:01:02.890Z,71.00
2022-11-01T07:02:02.273Z,71.00
2022-11-01T07:03:02.265Z,71.00
2022-11-01T07:04:02.055Z,71.00
2022-11-01T07:05:01.934Z,71.00
2022-11-01T07:06:02.044Z,70.00
2022-11-01T07:07:02.729Z,70.00
2022-11-01T07:08:02.867Z,70.00
2022-11-01T07:09:02.968Z,70.00
2022-11-01T07:10:02.514Z,69.00
2022-11-01T07:11:02.436Z,69.00
2022-11-01T07:12:02.229Z,69.00
2022-11-01T07:13:02.134Z,69.00
2022-11-01T07:14:02.345Z,69.00
2022-11-01T07:15:02.355Z,68.00
2022-11-01T07:16:02.077Z,69.00
2022-11-01T07:17:02.424Z,69.00
2022-11-01T07:18:02.844Z,70.00
2022-11-01T07:19:02.252Z,69.00
2022-11-01T07:20:02.044Z,69.00
2022-11-01T07:21:02.895Z,69.00
2022-11-01T07:22:02.189Z,69.00
2022-11-01T07:23:02.953Z,69.00
2022-11-01T07:24:02.455Z,69.00
2022-11-01T07:25:02.441Z,69.00
2022-11-01T07:26:02.463Z,69.00
2022-11-01T07:27:02.184Z,69.00
2022-11-01T07:28:02.141Z,69.00
2022-11-01T07:29:01.787Z,69.00
2022-11-01T07:30:01.878Z,69.00
2022-11-01T07:31:02.420Z,69.00
2022-11-01T07:32:02.584Z,69.00
2022-11-01T07:33:02.777Z,68.00
2022-11-01T07:34:02.212Z,69.00
2022-11-01T07:35:02.612Z,69.00
2022-11-01T07:36:02.672Z,69.00
2022-11-01T07:37:02.476Z,68.00
2022-11-01T07:38:05.075Z,67.00
2022-11-01T07:39:02.292Z,66.00
2022-11-01T07:40:02.822Z,66.00
2022-11-01T07:41:02.476Z,65.00
2022-11-01T07:42:02.206Z,64.00
2022-11-01T07:43:01.985Z,64.00
2022-11-01T07:44:02.189Z,64.00
2022-11-01T07:45:02.048Z,64.00
2022-11-01T07:46:02.199Z,63.00
2022-11-01T07:47:02.687Z,63.00
2022-11-01T07:48:02.955Z,64.00
2022-11-01T07:49:02.339Z,62.00
2022-11-01T07:50:02.524Z,62.00
2022-11-01T07:51:02.722Z,62.00
2022-11-01T07:52:03.159Z,63.00
2022-11-01T07:53:03.035Z,61.00
2022-11-01T07:54:02.633Z,62.00
2022-11-01T07:55:02.870Z,62.00
2022-11-01T07:56:03.011Z,61.00
2022-11-01T07:57:02.773Z,61.00
2022-11-01T07:58:03.059Z,61.00
2022-11-01T07:59:02.766Z,61.00
2022-11-01T08:00:02.462Z,61.00
2022-11-01T08:01:02.647Z,61.00
2022-11-01T08:02:06.969Z,61.00
2022-11-01T08:03:03.966Z,61.00
2022-11-01T08:04:03.361Z,61.00
2022-11-01T08:05:03.249Z,61.00
2022-11-01T08:06:02.835Z,61.00
2022-11-01T08:07:03.302Z,61.00
2022-11-01T08:08:03.871Z,61.00
2022-11-01T08:09:03.270Z,60.00
2022-11-01T08:10:03.173Z,59.00
2022-11-01T08:11:03.391Z,59.00
2022-11-01T08:12:03.062Z,60.00
2022-11-01T08:13:02.969Z,59.00
2022-11-01T08:14:05.175Z,58.00
2022-11-01T08:15:02.529Z,58.00
2022-11-01T08:16:02.905Z,58.00
2022-11-01T08:17:03.595Z,58.00
2022-11-01T08:18:03.783Z,57.00
2022-11-01T08:19:03.450Z,58.00
2022-11-01T08:20:03.356Z,58.00
2022-11-01T08:21:03.439Z,57.00
2022-11-01T08:22:02.547Z,58.00
2022-11-01T08:23:02.855Z,58.00
2022-11-01T08:24:02.958Z,57.00
2022-11-01T08:25:02.711Z,57.00
2022-11-01T08:26:02.820Z,57.00
2022-11-01T08:27:03.413Z,58.00
2022-11-01T08:28:03.276Z,57.00
2022-11-01T08:29:03.248Z,58.00
2022-11-01T08:30:03.273Z,58.00
2022-11-01T08:31:03.158Z,56.00
2022-11-01T08:32:03.440Z,56.00
2022-11-01T08:33:03.861Z,57.00
2022-11-01T08:34:03.075Z,58.00
2022-11-01T08:35:03.069Z,57.00
2022-11-01T08:36:03.102Z,57.00
2022-11-01T08:37:02.558Z,57.00
2022-11-01T08:38:02.644Z,57.00
2022-11-01T08:39:03.204Z,57.00
2022-11-01T08:40:02.870Z,57.00
2022-11-01T08:41:02.807Z,56.00
2022-11-01T08:42:02.884Z,56.00
2022-11-01T08:43:03.241Z,56.00
2022-11-01T08:44:03.206Z,56.00
2022-11-01T08:45:03.398Z,57.00
2022-11-01T08:46:02.841Z,57.00
2022-11-01T08:47:02.945Z,57.00
2022-11-01T08:48:03.211Z,58.00
2022-11-01T08:49:03.225Z,58.00
2022-11-01T08:50:04.936Z,58.00
2022-11-01T08:51:03.134Z,57.00
2022-11-01T08:52:03.289Z,57.00
2022-11-01T08:53:03.792Z,57.00
2022-11-01T08:54:03.873Z,57.00
2022-11-01T08:55:03.503Z,57.00
2022-11-01T08:56:03.868Z,57.00
2022-11-01T08:57:02.611Z,56.00
2022-11-01T08:58:02.824Z,57.00
2022-11-01T08:59:02.582Z,57.00
2022-11-01T09:00:02.707Z,57.00
2022-11-01T09:01:03.332Z,57.00
2022-11-01T09:02:01.987Z,58.00
2022-11-01T09:03:02.002Z,57.00
2022-11-01T09:04:01.805Z,56.00
2022-11-01T09:05:01.781Z,56.00
2022-11-01T09:06:02.283Z,56.00
2022-11-01T09:07:02.018Z,56.00
2022-11-01T09:08:02.467Z,57.00
2022-11-01T09:09:02.217Z,55.00
2022-11-01T09:10:02.283Z,56.00
2022-11-01T09:11:02.330Z,55.00
2022-11-01T09:12:02.217Z,56.00
2022-11-01T09:13:02.606Z,56.00
2022-11-01T09:14:02.771Z,56.00
2022-11-01T09:15:02.711Z,56.00
2022-11-01T09:16:02.688Z,57.00
2022-11-01T09:17:02.294Z,57.00
2022-11-01T09:18:02.321Z,57.00
2022-11-01T09:19:02.397Z,56.00
2022-11-01T09:20:02.755Z,55.00
2022-11-01T09:21:02.796Z,56.00
2022-11-01T09:22:02.599Z,55.00
2022-11-01T09:23:03.348Z,55.00
2022-11-01T09:24:02.793Z,54.00
2022-11-01T09:25:02.908Z,55.00
2022-11-01T09:26:02.788Z,54.00
2022-11-01T09:27:02.118Z,54.00
2022-11-01T09:28:02.137Z,53.00
2022-11-01T09:29:02.020Z,53.00
2022-11-01T09:30:02.031Z,53.00
2022-11-01T09:31:19.496Z,53.00
2022-11-01T09:32:01.904Z,54.00
2022-11-01T09:33:02.045Z,53.00
2022-11-01T09:34:02.336Z,53.00
2022-11-01T09:35:02.006Z,52.00
2022-11-01T09:36:02.319Z,52.00
2022-11-01T09:37:02.287Z,54.00
2022-11-01T09:38:02.184Z,52.00
2022-11-01T09:39:02.151Z,53.00
2022-11-01T09:40:02.741Z,52.00
2022-11-01T09:41:02.678Z,52.00
2022-11-01T09:42:02.655Z,53.00
2022-11-01T09:43:03.017Z,53.00
2022-11-01T09:44:03.086Z,53.00
2022-11-01T09:45:02.871Z,53.00
2022-11-01T09:46:02.819Z,51.00
2022-11-01T09:47:02.815Z,52.00
2022-11-01T09:48:02.322Z,52.00
2022-11-01T09:49:02.490Z,53.00
2022-11-01T09:50:02.390Z,53.00
2022-11-01T09:51:02.523Z,53.00
2022-11-01T09:52:01.939Z,53.00
2022-11-01T09:53:01.719Z,53.00
2022-11-01T09:54:01.807Z,52.00
2022-11-01T09:55:01.873Z,52.00
2022-11-01T09:56:01.812Z,52.00
2022-11-01T09:57:02.596Z,51.00
2022-11-01T09:58:02.977Z,50.00
2022-11-01T09:59:02.954Z,50.00
2022-11-01T10:00:02.681Z,51.00
2022-11-01T10:01:02.514Z,51.00
2022-11-01T10:02:05.822Z,51.00
2022-11-01T10:03:01.977Z,51.00
2022-11-01T10:04:01.910Z,50.00
2022-11-01T10:05:01.971Z,51.00
2022-11-01T10:06:01.854Z,52.00
2022-11-01T10:07:02.494Z,51.00
2022-11-01T10:08:03.042Z,50.00
2022-11-01T10:09:02.465Z,51.00
2022-11-01T10:10:02.205Z,51.00
2022-11-01T10:11:02.199Z,50.00
2022-11-01T10:12:02.760Z,49.00
2022-11-01T10:13:02.435Z,50.00
2022-11-01T10:14:02.677Z,49.00
2022-11-01T10:15:02.808Z,49.00
2022-11-01T10:16:02.601Z,48.00
2022-11-01T10:17:02.436Z,48.00
2022-11-01T10:18:02.691Z,48.00
2022-11-01T10:19:02.689Z,47.00
2022-11-01T10:20:02.483Z,47.00
2022-11-01T10:21:02.152Z,48.00
2022-11-01T10:22:02.779Z,48.00
2022-11-01T10:23:03.193Z,49.00
2022-11-01T10:24:02.445Z,47.00
2022-11-01T10:25:02.648Z,48.00
2022-11-01T10:26:02.576Z,49.00
2022-11-01T10:27:02.381Z,48.00
2022-11-01T10:28:02.429Z,48.00
2022-11-01T10:29:02.067Z,48.00
2022-11-01T10:30:02.167Z,47.00
2022-11-01T10:31:01.922Z,46.00
2022-11-01T10:32:02.959Z,47.00
2022-11-01T10:33:03.161Z,47.00
2022-11-01T10:34:03.070Z,47.00
2022-11-01T10:35:02.571Z,47.00
2022-11-01T10:36:02.578Z,48.00
2022-11-01T10:37:01.879Z,48.00
2022-11-01T10:38:19.407Z,49.00
2022-11-01T10:40:06.377Z,49.00
2022-11-01T10:41:01.924Z,48.00
2022-11-01T10:42:02.590Z,46.00
2022-11-01T10:43:02.514Z,47.00
2022-11-01T10:44:02.559Z,45.00
2022-11-01T10:45:02.631Z,45.00
2022-11-01T10:46:02.705Z,46.00
2022-11-01T10:47:02.144Z,47.00
2022-11-01T10:48:02.431Z,46.00
2022-11-01T10:49:01.976Z,45.00
2022-11-01T10:50:07.044Z,46.00
2022-11-01T10:51:01.762Z,44.00
2022-11-01T10:52:02.450Z,45.00
2022-11-01T10:53:02.141Z,45.00
2022-11-01T10:54:02.411Z,46.00
2022-11-01T10:55:02.510Z,45.00
2022-11-01T10:56:01.977Z,46.00
2022-11-01T10:57:03.072Z,46.00
2022-11-01T10:58:02.903Z,46.00
2022-11-01T10:59:02.622Z,44.00
2022-11-01T11:00:02.980Z,44.00
2022-11-01T11:01:02.989Z,45.00
2022-11-01T11:02:02.342Z,44.00
2022-11-01T11:03:02.884Z,43.00
2022-11-01T11:04:02.485Z,44.00
2022-11-01T11:05:02.659Z,44.00
2022-11-01T11:06:02.300Z,44.00
2022-11-01T11:07:02.808Z,44.00
2022-11-01T11:08:02.721Z,45.00
2022-11-01T11:09:02.849Z,45.00
2022-11-01T11:10:03.262Z,45.00
2022-11-01T11:11:02.863Z,47.00
2022-11-01T11:12:03.365Z,45.00
2022-11-01T11:13:03.646Z,45.00
2022-11-01T11:14:02.832Z,46.00
2022-11-01T11:15:02.915Z,46.00
2022-11-01T11:16:02.936Z,45.00
2022-11-01T11:17:02.134Z,45.00
2022-11-01T11:18:02.250Z,44.00
2022-11-01T11:19:02.287Z,44.00
2022-11-01T11:20:02.646Z,43.00
2022-11-01T11:21:02.728Z,42.00
2022-11-01T11:22:02.649Z,43.00
2022-11-01T11:23:03.597Z,43.00
2022-11-01T11:24:03.134Z,42.00
2022-11-01T11:25:03.336Z,42.00
2022-11-01T11:26:03.077Z,42.00
2022-11-01T11:27:02.911Z,42.00
2022-11-01T11:28:02.456Z,42.00
2022-11-01T11:29:02.108Z,42.00
2022-11-01T11:30:02.039Z,41.00
2022-11-01T11:31:01.951Z,43.00
2022-11-01T11:32:02.491Z,42.00
2022-11-01T11:33:03.188Z,42.00
2022-11-01T11:34:03.143Z,43.00
2022-11-01T11:35:03.141Z,43.00
2022-11-01T11:36:02.850Z,43.00
2022-11-01T11:37:03.174Z,43.00
2022-11-01T11:38:03.115Z,44.00
2022-11-01T11:39:02.540Z,42.00
2022-11-01T11:40:02.497Z,43.00
2022-11-01T11:41:02.456Z,43.00
2022-11-01T11:42:02.440Z,44.00
2022-11-01T11:43:03.435Z,42.00
2022-11-01T11:44:03.249Z,43.00
2022-11-01T11:45:03.173Z,42.00
2022-11-01T11:46:03.108Z,41.00
2022-11-01T11:47:02.955Z,40.00
2022-11-01T11:48:03.013Z,40.00
2022-11-01T11:49:02.484Z,39.00
2022-11-01T11:50:02.921Z,38.00
2022-11-01T11:51:02.693Z,40.00
2022-11-01T11:52:02.493Z,40.00
2022-11-01T11:53:03.256Z,40.00
2022-11-01T11:54:03.432Z,38.00
2022-11-01T11:55:03.234Z,39.00
2022-11-01T11:56:03.113Z,39.00
2022-11-01T11:57:02.948Z,40.00
2022-11-01T11:58:03.214Z,39.00
2022-11-01T11:59:07.418Z,39.00
2022-11-01T12:00:02.500Z,40.00
2022-11-01T12:01:02.720Z,39.00
2022-11-01T12:02:02.915Z,40.00
2022-11-01T12:03:03.351Z,39.00
2022-11-01T12:04:02.557Z,39.00
2022-11-01T12:05:02.750Z,39.00
2022-11-01T12:06:02.770Z,40.00
2022-11-01T12:07:02.637Z,39.00
2022-11-01T12:08:03.062Z,39.00
2022-11-01T12:09:03.118Z,40.00
2022-11-01T12:10:03.041Z,39.00
2022-11-01T12:11:02.668Z,40.00
2022-11-01T12:12:02.537Z,39.00
2022-11-01T12:13:03.746Z,39.00
2022-11-01T12:14:03.179Z,39.00
2022-11-01T12:15:03.167Z,40.00
2022-11-01T12:16:03.407Z,39.00
2022-11-01T12:17:03.064Z,39.00
2022-11-01T12:18:03.137Z,39.00
2022-11-01T12:19:02.488Z,39.00
2022-11-01T12:20:02.865Z,39.00
2022-11-01T12:21:02.355Z,40.00
2022-11-01T12:22:02.609Z,39.00
2022-11-01T12:23:02.814Z,39.00
2022-11-01T12:24:03.011Z,39.00
2022-11-01T12:25:03.061Z,38.00
2022-11-01T12:26:03.499Z,37.00
2022-11-01T12:27:03.437Z,38.00
2022-11-01T12:28:03.069Z,38.00
2022-11-01T12:29:02.832Z,38.00
2022-11-01T12:30:02.834Z,38.00
2022-11-01T12:31:02.640Z,38.00
2022-11-01T12:32:03.063Z,38.00
2022-11-01T12:33:03.773Z,37.00
2022-11-01T12:34:03.427Z,38.00
2022-11-01T12:35:03.606Z,38.00
2022-11-01T12:36:03.636Z,37.00
2022-11-01T12:37:03.572Z,36.00
2022-11-01T12:38:03.636Z,37.00
2022-11-01T12:39:03.148Z,39.00
2022-11-01T12:40:03.157Z,38.00
2022-11-01T12:41:02.884Z,37.00
2022-11-01T12:42:03.041Z,38.00
2022-11-01T12:43:03.744Z,37.00
2022-11-01T12:44:03.526Z,37.00
2022-11-01T12:45:03.745Z,36.00
2022-11-01T12:46:03.571Z,37.00
2022-11-01T12:47:03.809Z,36.00
2022-11-01T12:48:03.730Z,37.00
2022-11-01T12:49:03.089Z,37.00
2022-11-01T12:50:03.073Z,38.00
2022-11-01T12:51:03.220Z,36.00
2022-11-01T12:52:02.845Z,37.00
2022-11-01T12:53:04.042Z,38.00
2022-11-01T12:54:03.473Z,37.00
2022-11-01T12:55:02.961Z,38.00